createdAt,value
2017-12-26T00:02:23.792Z,7.80
2017-12-26T00:04:53.667Z,7.57
2017-12-26T00:07:23.320Z,8.23
2017-12-26T00:09:52.918Z,10.73
2017-12-26T00:12:22.373Z,7.77
2017-12-26T00:14:52.233Z,7.97
2017-12-26T00:17:21.330Z,10.17
2017-12-26T00:19:50.017Z,9.80
2017-12-26T00:22:19.268Z,9.30
2017-12-26T00:24:48.825Z,8.03
2017-12-26T00:27:19.146Z,8.43
2017-12-26T00:29:48.959Z,8.70
2017-12-26T00:32:18.155Z,8.03
2017-12-26T00:34:47.765Z,11.40
2017-12-26T00:37:16.452Z,8.10
2017-12-26T00:39:45.239Z,10.77
2017-12-26T00:42:18.842Z,8.07
2017-12-26T00:44:47.531Z,10.10
2017-12-26T00:47:16.523Z,8.00
2017-12-26T00:49:45.540Z,7.93
2017-12-26T00:52:14.608Z,7.63
2017-12-26T00:54:43.322Z,6.60
2017-12-26T00:57:12.912Z,7.30
2017-12-26T00:59:41.999Z,7.23
2017-12-26T01:02:11.916Z,7.00
2017-12-26T01:04:40.704Z,7.40
2017-12-26T01:07:09.491Z,6.93
2017-12-26T01:09:38.865Z,6.30
2017-12-26T01:12:07.579Z,7.40
2017-12-26T01:14:36.368Z,7.03
2017-12-26T01:17:06.181Z,7.00
2017-12-26T01:19:34.969Z,6.13
2017-12-26T01:22:03.798Z,6.27
2017-12-26T01:24:32.445Z,6.67
2017-12-26T01:27:01.133Z,7.17
2017-12-26T01:29:31.048Z,7.13
2017-12-26T01:31:59.748Z,6.10
2017-12-26T01:34:29.383Z,6.83
2017-12-26T01:36:58.646Z,6.70
2017-12-26T01:39:27.850Z,6.77
2017-12-26T01:41:57.565Z,7.40
2017-12-26T01:44:26.541Z,6.93
2017-12-26T01:46:55.841Z,6.23
2017-12-26T01:49:25.452Z,6.40
2017-12-26T01:51:54.238Z,6.23
2017-12-26T01:54:23.436Z,5.70
2017-12-26T01:56:52.353Z,5.13
2017-12-26T01:59:21.116Z,6.00
2017-12-26T02:01:49.905Z,6.00
2017-12-26T02:04:19.412Z,5.80
2017-12-26T02:06:49.325Z,5.97
2017-12-26T02:09:18.420Z,5.37
2017-12-26T02:11:47.416Z,5.13
2017-12-26T02:14:16.322Z,5.47
2017-12-26T02:16:45.609Z,5.20
2017-12-26T02:19:14.451Z,5.03
2017-12-26T02:21:43.493Z,4.60
2017-12-26T02:24:13.891Z,5.30
2017-12-26T02:26:42.810Z,5.67
2017-12-26T02:29:11.596Z,5.73
2017-12-26T02:31:41.412Z,4.90
2017-12-26T02:34:11.941Z,5.60
2017-12-26T02:36:40.830Z,5.30
2017-12-26T02:39:10.544Z,5.07
2017-12-26T02:41:40.352Z,6.17
2017-12-26T02:44:09.450Z,5.77
2017-12-26T02:46:38.342Z,5.67
2017-12-26T02:49:07.143Z,6.10
2017-12-26T02:51:36.740Z,5.30
2017-12-26T02:54:06.047Z,5.30
2017-12-26T02:56:35.137Z,5.60
2017-12-26T02:59:04.544Z,5.30
2017-12-26T03:01:33.446Z,5.17
2017-12-26T03:04:03.195Z,6.10
2017-12-26T03:06:32.933Z,5.50
2017-12-26T03:09:03.071Z,5.83
2017-12-26T03:11:32.371Z,6.97
2017-12-26T03:14:01.164Z,6.80
2017-12-26T03:16:30.667Z,6.83
2017-12-26T03:18:59.569Z,6.83
2017-12-26T03:21:29.782Z,7.20
2017-12-26T03:23:58.464Z,6.37
2017-12-26T03:26:27.156Z,7.53
2017-12-26T03:28:56.454Z,7.13
2017-12-26T03:31:26.065Z,7.30
2017-12-26T03:33:55.202Z,6.77
2017-12-26T03:36:25.704Z,7.10
2017-12-26T03:38:54.982Z,7.30
2017-12-26T03:41:24.180Z,7.10
2017-12-26T03:43:53.938Z,7.40
2017-12-26T03:46:22.884Z,7.70
2017-12-26T03:48:52.665Z,7.63
2017-12-26T03:51:21.487Z,8.50
2017-12-26T03:53:50.281Z,7.27
2017-12-26T03:56:19.882Z,7.33
2017-12-26T03:58:49.393Z,7.50
2017-12-26T04:01:19.365Z,7.20
2017-12-26T04:03:48.261Z,8.00
2017-12-26T04:06:16.982Z,7.93
2017-12-26T04:08:45.667Z,7.27
2017-12-26T04:11:14.707Z,7.13
2017-12-26T04:13:43.347Z,7.73
2017-12-26T04:16:12.029Z,7.80
2017-12-26T04:18:40.927Z,6.87
2017-12-26T04:21:09.636Z,7.70
2017-12-26T04:23:39.609Z,7.57
2017-12-26T04:26:08.837Z,7.00
2017-12-26T04:28:38.332Z,7.73
2017-12-26T04:31:07.334Z,6.53
2017-12-26T04:33:37.278Z,6.93
2017-12-26T04:36:06.394Z,7.10
2017-12-26T04:38:37.154Z,6.83
2017-12-26T04:41:05.963Z,6.50
2017-12-26T04:43:34.853Z,7.40
2017-12-26T04:46:03.775Z,6.47
2017-12-26T04:48:32.638Z,6.63
2017-12-26T04:51:01.448Z,6.93
2017-12-26T04:53:30.111Z,6.57
2017-12-26T04:55:58.898Z,6.83
2017-12-26T04:58:27.688Z,6.30
2017-12-26T05:00:56.789Z,6.93
2017-12-26T05:03:25.781Z,6.30
2017-12-26T05:05:54.816Z,7.77
2017-12-26T05:08:23.970Z,6.70
2017-12-26T05:10:53.577Z,6.23
2017-12-26T05:13:22.364Z,6.57
2017-12-26T05:15:51.868Z,5.83
2017-12-26T05:18:21.179Z,6.57
2017-12-26T05:20:51.432Z,5.67
2017-12-26T05:23:20.386Z,6.10
2017-12-26T05:25:50.239Z,5.70
2017-12-26T05:28:19.395Z,5.50
2017-12-26T05:30:48.122Z,6.43
2017-12-26T05:33:18.202Z,6.43
2017-12-26T05:35:47.508Z,6.17
2017-12-26T05:38:16.300Z,6.20
2017-12-26T05:40:46.204Z,6.90
2017-12-26T05:43:14.890Z,6.90
2017-12-26T05:45:43.690Z,6.50
2017-12-26T05:48:12.906Z,7.00
2017-12-26T05:50:42.088Z,7.33
2017-12-26T05:53:10.915Z,6.80
2017-12-26T05:55:41.095Z,6.40
2017-12-26T05:58:09.773Z,6.37
2017-12-26T06:00:38.467Z,6.97
2017-12-26T06:03:07.157Z,6.63
2017-12-26T06:05:36.244Z,6.60
2017-12-26T06:08:04.932Z,7.37
2017-12-26T06:10:35.152Z,6.90
2017-12-26T06:13:04.657Z,6.60
2017-12-26T06:15:33.353Z,5.50
2017-12-26T06:18:02.435Z,4.67
2017-12-26T06:20:31.231Z,4.83
2017-12-26T06:23:01.463Z,4.97
2017-12-26T06:25:31.057Z,4.37
2017-12-26T06:27:59.745Z,4.53
2017-12-26T06:30:28.532Z,4.00
2017-12-26T06:32:57.217Z,5.40
2017-12-26T06:35:26.108Z,5.00
2017-12-26T06:37:54.897Z,4.47
2017-12-26T06:40:23.788Z,5.83
2017-12-26T06:42:52.476Z,5.20
2017-12-26T06:45:21.161Z,5.00
2017-12-26T06:47:50.118Z,4.80
2017-12-26T06:50:19.559Z,4.40
2017-12-26T06:52:48.757Z,4.70
2017-12-26T06:55:17.954Z,5.10
2017-12-26T06:57:47.149Z,6.20
2017-12-26T07:00:17.410Z,4.90
2017-12-26T07:02:47.391Z,5.93
2017-12-26T07:05:16.488Z,4.90
2017-12-26T07:07:45.275Z,5.07
2017-12-26T07:10:15.501Z,4.93
2017-12-26T07:12:45.218Z,4.70
2017-12-26T07:15:14.510Z,5.23
2017-12-26T07:17:43.295Z,5.37
2017-12-26T07:20:17.719Z,5.90
2017-12-26T07:22:47.529Z,5.83
2017-12-26T07:25:16.215Z,5.67
2017-12-26T07:27:45.313Z,4.90
2017-12-26T07:30:14.099Z,5.37
2017-12-26T07:32:42.895Z,4.67
2017-12-26T07:35:11.680Z,4.70
2017-12-26T07:37:40.774Z,5.33
2017-12-26T07:40:10.284Z,4.83
2017-12-26T07:42:39.137Z,4.83
2017-12-26T07:45:07.960Z,5.97
2017-12-26T07:47:37.053Z,5.57
2017-12-26T07:50:06.660Z,5.97
2017-12-26T07:52:35.346Z,5.43
2017-12-26T07:55:04.654Z,5.53
2017-12-26T07:57:33.336Z,6.33
2017-12-26T08:00:02.124Z,6.20
2017-12-26T08:02:31.730Z,8.90
2017-12-26T08:05:01.954Z,6.40
2017-12-26T08:07:31.458Z,7.90
2017-12-26T08:10:01.888Z,6.17
2017-12-26T08:12:31.802Z,5.93
2017-12-26T08:15:01.207Z,7.37
2017-12-26T08:17:29.934Z,7.60
2017-12-26T08:19:58.575Z,7.60
2017-12-26T08:22:27.467Z,7.97
2017-12-26T08:24:56.565Z,7.80
2017-12-26T08:27:26.069Z,8.33
2017-12-26T08:29:54.861Z,8.57
2017-12-26T08:32:23.888Z,7.97
2017-12-26T08:34:53.660Z,9.43
2017-12-26T08:37:22.498Z,9.37
2017-12-26T08:39:51.239Z,8.90
2017-12-26T08:42:20.035Z,9.57
2017-12-26T08:44:49.533Z,9.07
2017-12-26T08:47:19.140Z,10.13
2017-12-26T08:49:48.562Z,9.57
2017-12-26T08:52:17.444Z,11.40
2017-12-26T08:54:47.045Z,10.60
2017-12-26T08:57:16.141Z,10.33
2017-12-26T08:59:45.236Z,10.40
2017-12-26T09:02:14.024Z,10.37
2017-12-26T09:04:42.642Z,10.60
2017-12-26T09:07:12.626Z,11.87
2017-12-26T09:09:41.310Z,13.07
2017-12-26T09:12:10.511Z,13.53
2017-12-26T09:14:39.304Z,13.20
2017-12-26T09:17:08.805Z,12.70
2017-12-26T09:19:37.492Z,11.43
2017-12-26T09:22:07.000Z,11.50
2017-12-26T09:24:36.036Z,12.00
2017-12-26T09:27:06.211Z,12.00
2017-12-26T09:29:35.306Z,11.70
2017-12-26T09:32:04.105Z,10.37
2017-12-26T09:34:32.885Z,10.90
2017-12-26T09:37:02.084Z,11.97
2017-12-26T09:39:30.773Z,11.90
2017-12-26T09:42:00.794Z,11.47
2017-12-26T09:44:29.472Z,11.87
2017-12-26T09:46:59.695Z,11.87
2017-12-26T09:49:29.196Z,11.83
2017-12-26T09:51:57.993Z,10.90
2017-12-26T09:54:28.207Z,12.70
2017-12-26T09:56:56.998Z,14.00
2017-12-26T09:59:26.606Z,14.47
2017-12-26T10:01:56.114Z,13.80
2017-12-26T10:04:25.614Z,12.90
2017-12-26T10:06:54.304Z,12.37
2017-12-26T10:09:23.396Z,12.77
2017-12-26T10:11:53.721Z,14.20
2017-12-26T10:14:22.415Z,6.50
2017-12-26T10:16:51.201Z,5.57
2017-12-26T10:19:20.638Z,13.83
2017-12-26T10:21:50.721Z,6.40
2017-12-26T10:24:19.818Z,5.60
2017-12-26T10:26:48.911Z,5.83
2017-12-26T10:29:18.007Z,5.43
2017-12-26T10:31:46.717Z,5.00
2017-12-26T10:34:15.900Z,5.13
2017-12-26T10:36:46.215Z,4.40
2017-12-26T10:39:14.906Z,4.30
2017-12-26T10:41:44.722Z,5.50
2017-12-26T10:44:14.220Z,6.00
2017-12-26T10:46:43.725Z,5.23
2017-12-26T10:49:13.233Z,5.93
2017-12-26T10:51:42.328Z,4.60
2017-12-26T10:54:12.241Z,5.27
2017-12-26T10:56:41.028Z,4.47
2017-12-26T10:59:10.741Z,4.47
2017-12-26T11:01:39.427Z,4.60
2017-12-26T11:04:08.114Z,4.57
2017-12-26T11:06:37.225Z,7.83
2017-12-26T11:09:06.717Z,5.00
2017-12-26T11:11:35.502Z,4.73
2017-12-26T11:14:05.110Z,6.43
2017-12-26T11:16:35.435Z,5.17
2017-12-26T11:19:04.941Z,5.20
2017-12-26T11:21:33.629Z,5.77
2017-12-26T11:24:02.739Z,5.73
2017-12-26T11:26:32.229Z,5.30
2017-12-26T11:29:01.337Z,4.93
2017-12-26T11:31:30.423Z,5.37
2017-12-26T11:33:59.108Z,4.30
2017-12-26T11:36:28.715Z,4.00
2017-12-26T11:38:59.011Z,4.20
2017-12-26T11:41:27.873Z,4.73
2017-12-26T11:43:56.616Z,4.83
2017-12-26T11:46:26.429Z,5.60
2017-12-26T11:48:55.346Z,4.93
2017-12-26T11:51:24.519Z,4.10
2017-12-26T11:53:55.139Z,5.30
2017-12-26T11:56:23.733Z,5.10
2017-12-26T11:58:52.885Z,4.47
2017-12-26T12:01:22.135Z,5.00
2017-12-26T12:03:50.821Z,5.30
2017-12-26T12:06:20.938Z,5.37
2017-12-26T12:08:51.054Z,5.37
2017-12-26T12:11:20.152Z,5.77
2017-12-26T12:13:48.837Z,4.63
2017-12-26T12:16:17.873Z,5.50
2017-12-26T12:18:47.030Z,6.10
2017-12-26T12:21:15.717Z,5.87
2017-12-26T12:23:44.406Z,5.20
2017-12-26T12:26:14.591Z,4.73
2017-12-26T12:28:44.639Z,4.60
2017-12-26T12:31:13.222Z,5.13
2017-12-26T12:33:43.351Z,8.27
2017-12-26T12:36:12.855Z,6.20
2017-12-26T12:38:42.672Z,5.53
2017-12-26T12:41:12.169Z,6.03
2017-12-26T12:43:41.675Z,7.57
2017-12-26T12:46:11.180Z,4.20
2017-12-26T12:48:40.477Z,4.40
2017-12-26T12:51:09.266Z,4.67
2017-12-26T12:53:38.773Z,5.27
2017-12-26T12:56:07.458Z,5.70
2017-12-26T12:58:36.144Z,5.63
2017-12-26T13:01:05.246Z,4.43
2017-12-26T13:03:35.361Z,4.80
2017-12-26T13:06:04.800Z,5.20
2017-12-26T13:08:35.312Z,4.33
2017-12-26T13:11:14.764Z,4.53
2017-12-26T13:13:43.520Z,4.47
2017-12-26T13:16:12.614Z,5.50
2017-12-26T13:18:41.300Z,7.60
2017-12-26T13:21:10.808Z,6.57
2017-12-26T13:23:39.901Z,6.73
2017-12-26T13:26:08.597Z,5.80
2017-12-26T13:28:37.991Z,5.93
2017-12-26T13:31:07.291Z,5.57
2017-12-26T13:33:36.899Z,6.20
2017-12-26T13:36:06.409Z,9.00
2017-12-26T13:38:35.502Z,5.40
2017-12-26T13:41:05.322Z,6.20
2017-12-26T13:43:34.104Z,5.57
2017-12-26T13:46:03.610Z,5.60
2017-12-26T13:48:32.294Z,5.20
2017-12-26T13:51:01.291Z,5.73
2017-12-26T13:53:29.892Z,6.70
2017-12-26T13:55:58.661Z,6.20
2017-12-26T13:58:27.347Z,7.37
2017-12-26T14:00:56.442Z,5.10
2017-12-26T14:03:25.948Z,6.20
2017-12-26T14:05:54.777Z,4.87
2017-12-26T14:08:23.529Z,5.03
2017-12-26T14:10:52.553Z,5.50
2017-12-26T14:13:22.539Z,5.50
2017-12-26T14:15:51.734Z,5.47
2017-12-26T14:18:21.351Z,6.00
2017-12-26T14:20:51.051Z,6.00
2017-12-26T14:23:20.454Z,6.37
2017-12-26T14:25:49.452Z,6.87
2017-12-26T14:28:18.241Z,7.13
2017-12-26T14:30:46.923Z,9.10
2017-12-26T14:33:15.821Z,7.83
2017-12-26T14:35:45.324Z,6.97
2017-12-26T14:38:14.210Z,6.10
2017-12-26T14:40:43.306Z,5.10
2017-12-26T14:43:12.095Z,6.13
2017-12-26T14:45:41.702Z,5.80
2017-12-26T14:48:10.486Z,6.33
2017-12-26T14:50:39.997Z,5.77
2017-12-26T14:53:09.089Z,5.73
2017-12-26T14:55:38.594Z,6.80
2017-12-26T14:58:08.203Z,5.37
2017-12-26T15:00:37.707Z,6.10
2017-12-26T15:03:07.214Z,5.60
2017-12-26T15:05:36.004Z,6.00
2017-12-26T15:08:04.688Z,6.03
2017-12-26T15:10:33.579Z,6.90
2017-12-26T15:13:02.928Z,6.53
2017-12-26T15:15:31.611Z,6.70
2017-12-26T15:18:01.275Z,8.07
2017-12-26T15:20:30.989Z,7.03
2017-12-26T15:23:00.493Z,7.73
2017-12-26T15:25:29.342Z,7.80
2017-12-26T15:27:58.516Z,6.70
2017-12-26T15:30:27.779Z,5.70
2017-12-26T15:32:58.001Z,5.53
2017-12-26T15:35:26.783Z,4.70
2017-12-26T15:37:55.579Z,3.70
2017-12-26T15:40:25.800Z,3.77
2017-12-26T15:42:55.974Z,4.40
2017-12-26T15:45:24.552Z,4.10
2017-12-26T15:47:53.401Z,4.67
2017-12-26T15:50:22.796Z,3.47
2017-12-26T15:52:52.200Z,3.90
2017-12-26T15:55:23.141Z,5.00
2017-12-26T15:57:53.160Z,3.83
2017-12-26T16:00:21.946Z,3.40
2017-12-26T16:02:52.272Z,4.40
2017-12-26T16:05:22.320Z,4.60
2017-12-26T16:07:50.819Z,3.37
2017-12-26T16:10:19.662Z,3.03
2017-12-26T16:12:48.346Z,3.33
2017-12-26T16:15:17.057Z,4.00
2017-12-26T16:17:45.824Z,3.90
2017-12-26T16:20:14.459Z,3.23
2017-12-26T16:22:43.909Z,3.90
2017-12-26T16:25:14.029Z,3.63
2017-12-26T16:27:43.945Z,3.50
2017-12-26T16:30:12.734Z,4.50
2017-12-26T16:32:42.696Z,4.40
2017-12-26T16:35:11.541Z,4.30
2017-12-26T16:37:41.556Z,4.50
2017-12-26T16:40:11.833Z,3.57
2017-12-26T16:42:40.672Z,4.00
2017-12-26T16:45:10.689Z,4.40
2017-12-26T16:47:40.709Z,4.63
2017-12-26T16:50:10.421Z,4.70
2017-12-26T16:52:39.412Z,4.80
2017-12-26T16:55:08.745Z,5.00
2017-12-26T16:57:38.831Z,4.50
2017-12-26T17:00:08.335Z,3.80
2017-12-26T17:02:38.517Z,4.30
2017-12-26T17:05:07.653Z,4.60
2017-12-26T17:07:37.092Z,5.57
2017-12-26T17:10:05.953Z,4.80
2017-12-26T17:12:35.150Z,4.57
2017-12-26T17:15:05.374Z,4.37
2017-12-26T17:17:35.590Z,4.67
2017-12-26T17:20:05.606Z,7.00
2017-12-26T17:22:34.497Z,4.40
2017-12-26T17:25:04.670Z,6.87
2017-12-26T17:27:33.712Z,4.03
2017-12-26T17:30:03.941Z,3.67
2017-12-26T17:32:33.951Z,4.10
2017-12-26T17:35:02.849Z,4.67
2017-12-26T17:37:33.988Z,4.77
2017-12-26T17:40:04.270Z,3.70
2017-12-26T17:42:33.924Z,3.80
2017-12-26T17:45:03.220Z,4.77
2017-12-26T17:47:31.918Z,4.40
2017-12-26T17:50:00.697Z,6.70
2017-12-26T17:52:29.749Z,4.33
2017-12-26T17:55:00.116Z,4.80
2017-12-26T17:57:30.236Z,4.27
2017-12-26T17:59:59.643Z,4.00
2017-12-26T18:02:28.431Z,4.60
2017-12-26T18:04:58.753Z,4.90
2017-12-26T18:07:28.870Z,5.73
2017-12-26T18:09:59.302Z,3.97
2017-12-26T18:12:29.421Z,5.60
2017-12-26T18:15:00.092Z,4.40
2017-12-26T18:17:30.274Z,3.50
2017-12-26T18:20:00.009Z,4.80
2017-12-26T18:22:29.351Z,5.53
2017-12-26T18:24:59.401Z,7.30
2017-12-26T18:27:29.011Z,4.53
2017-12-26T18:29:58.414Z,4.87
2017-12-26T18:32:27.918Z,4.70
2017-12-26T18:34:58.037Z,4.20
2017-12-26T18:37:27.141Z,4.30
2017-12-26T18:39:57.469Z,6.13
2017-12-26T18:42:27.580Z,4.43
2017-12-26T18:44:57.802Z,4.83
2017-12-26T18:47:27.215Z,5.80
2017-12-26T18:49:56.507Z,5.43
2017-12-26T18:52:26.727Z,4.27
2017-12-26T18:54:56.436Z,4.50
2017-12-26T18:57:25.532Z,5.90
2017-12-26T18:59:54.731Z,6.10
2017-12-26T19:02:23.825Z,4.27
2017-12-26T19:04:52.923Z,3.47
2017-12-26T19:07:22.428Z,3.23
2017-12-26T19:09:52.750Z,3.63
2017-12-26T19:12:22.563Z,3.47
2017-12-26T19:14:51.252Z,2.53
2017-12-26T19:17:21.109Z,3.33
2017-12-26T19:19:49.853Z,3.93
2017-12-26T19:22:18.590Z,3.07
2017-12-26T19:24:48.491Z,3.63
2017-12-26T19:27:17.343Z,3.40
2017-12-26T19:29:46.180Z,2.70
2017-12-26T19:32:15.088Z,3.20
2017-12-26T19:34:44.674Z,3.63
2017-12-26T19:37:13.727Z,3.20
2017-12-26T19:39:44.055Z,3.47
2017-12-26T19:42:13.558Z,3.60
2017-12-26T19:44:42.486Z,3.80
2017-12-26T19:47:11.649Z,3.27
2017-12-26T19:49:41.561Z,3.97
2017-12-26T19:52:11.096Z,3.60
2017-12-26T19:54:41.905Z,2.77
2017-12-26T19:57:11.206Z,3.03
2017-12-26T19:59:39.890Z,3.17
2017-12-26T20:02:08.729Z,4.03
2017-12-26T20:04:38.184Z,3.60
2017-12-26T20:07:07.127Z,4.07
2017-12-26T20:09:36.278Z,3.40
2017-12-26T20:12:06.598Z,3.40
2017-12-26T20:14:36.206Z,3.70
2017-12-26T20:17:05.505Z,3.60
2017-12-26T20:19:34.192Z,3.40
2017-12-26T20:22:03.697Z,4.17
2017-12-26T20:24:32.831Z,3.57
2017-12-26T20:27:03.015Z,3.13
2017-12-26T20:29:32.325Z,4.00
2017-12-26T20:32:01.105Z,4.43
2017-12-26T20:34:30.408Z,4.00
2017-12-26T20:37:00.219Z,3.23
2017-12-26T20:39:28.940Z,3.17
2017-12-26T20:41:57.805Z,4.23
2017-12-26T20:44:27.914Z,3.90
2017-12-26T20:46:57.059Z,4.17
2017-12-26T20:49:25.767Z,3.23
2017-12-26T20:51:55.747Z,3.10
2017-12-26T20:54:25.219Z,3.80
2017-12-26T20:56:54.368Z,3.80
2017-12-26T20:59:23.109Z,3.77
2017-12-26T21:01:52.200Z,3.50
2017-12-26T21:04:20.837Z,3.13
2017-12-26T21:06:49.572Z,3.60
2017-12-26T21:09:18.564Z,4.23
2017-12-26T21:11:47.255Z,3.63
2017-12-26T21:14:16.092Z,4.60
2017-12-26T21:16:45.252Z,3.80
2017-12-26T21:19:14.744Z,3.10
2017-12-26T21:21:43.531Z,4.53
2017-12-26T21:24:13.251Z,4.10
2017-12-26T21:26:42.753Z,3.90
2017-12-26T21:29:11.494Z,3.43
2017-12-26T21:31:40.898Z,3.90
2017-12-26T21:34:09.946Z,4.30
2017-12-26T21:36:39.849Z,3.97
2017-12-26T21:39:08.740Z,3.63
2017-12-26T21:41:38.040Z,3.93
2017-12-26T21:44:07.350Z,3.70
2017-12-26T21:46:36.230Z,3.80
2017-12-26T21:49:05.018Z,3.50
2017-12-26T21:51:33.910Z,3.83
2017-12-26T21:54:03.723Z,4.00
2017-12-26T21:56:32.618Z,4.10
2017-12-26T21:59:02.125Z,3.40
2017-12-26T22:01:30.913Z,3.90
2017-12-26T22:04:00.211Z,3.90
2017-12-26T22:06:29.307Z,3.10
2017-12-26T22:08:58.913Z,3.43
2017-12-26T22:11:28.011Z,3.30
2017-12-26T22:13:56.693Z,3.00
2017-12-26T22:16:25.602Z,3.50
2017-12-26T22:18:55.094Z,3.53
2017-12-26T22:21:24.597Z,2.90
2017-12-26T22:23:54.929Z,3.40
2017-12-26T22:26:24.017Z,3.70
2017-12-26T22:28:53.846Z,3.07
2017-12-26T22:31:23.443Z,3.20
2017-12-26T22:33:52.333Z,3.60
2017-12-26T22:36:21.833Z,3.07
2017-12-26T22:38:51.237Z,3.37
2017-12-26T22:41:21.577Z,3.40
2017-12-26T22:43:50.246Z,2.60
2017-12-26T22:46:19.037Z,4.17
2017-12-26T22:48:47.732Z,3.10
2017-12-26T22:51:16.409Z,2.80
2017-12-26T22:53:46.530Z,3.10
2017-12-26T22:56:15.170Z,3.83
2017-12-26T22:58:44.517Z,4.10
2017-12-26T23:01:13.305Z,3.70
2017-12-26T23:03:41.994Z,3.40
2017-12-26T23:06:10.681Z,3.40
2017-12-26T23:08:39.986Z,4.33
2017-12-26T23:11:09.708Z,2.80
2017-12-26T23:13:38.478Z,3.67
2017-12-26T23:16:12.998Z,3.07
2017-12-26T23:18:42.616Z,3.17
2017-12-26T23:21:11.812Z,2.90
2017-12-26T23:23:47.766Z,2.50
2017-12-26T23:26:22.081Z,2.50
2017-12-26T23:28:56.848Z,2.40
2017-12-26T23:34:41.596Z,2.33
2017-12-26T23:40:16.369Z,2.53
2017-12-26T23:42:50.605Z,2.10
2017-12-26T23:45:24.975Z,2.20
2017-12-26T23:47:59.429Z,2.67
2017-12-26T23:50:33.827Z,2.80
2017-12-26T23:53:08.487Z,2.90
2017-12-26T23:55:42.864Z,2.40
2017-12-26T23:58:17.590Z,2.50
